createdAt,value
2022-09-05T00:00:01.429Z,96.53
2022-09-05T00:03:06.282Z,96.62
2022-09-05T00:06:07.105Z,96.75
2022-09-05T00:09:13.546Z,96.68
2022-09-05T00:12:03.339Z,97.28
2022-09-05T00:15:16.110Z,97.54
2022-09-05T00:22:52.701Z,97.79
2022-09-05T00:24:27.147Z,98.04
2022-09-05T00:25:31.303Z,98.24
2022-09-05T00:28:26.204Z,98.42
2022-09-05T00:31:54.250Z,98.90
2022-09-05T00:34:57.066Z,98.97
2022-09-05T00:37:49.805Z,98.74
2022-09-05T00:40:45.125Z,98.93
2022-09-05T00:43:39.514Z,98.86
2022-09-05T00:46:31.992Z,98.77
2022-09-05T00:49:55.111Z,99.07
2022-09-05T00:53:07.478Z,98.90
2022-09-05T00:55:53.577Z,98.88
2022-09-05T00:59:08.675Z,98.70
2022-09-05T01:02:04.293Z,98.65
2022-09-05T01:05:01.467Z,98.61
2022-09-05T01:08:12.305Z,98.70
2022-09-05T01:11:19.104Z,98.74
2022-09-05T01:14:17.462Z,98.76
2022-09-05T01:17:22.416Z,98.45
2022-09-05T01:20:43.812Z,98.32
2022-09-05T01:23:29.678Z,98.36
2022-09-05T01:26:34.297Z,98.62
2022-09-05T01:29:20.166Z,98.38
2022-09-05T01:32:24.127Z,98.26
2022-09-05T01:35:28.345Z,98.19
2022-09-05T01:38:57.996Z,98.20
2022-09-05T01:42:00.649Z,98.58
2022-09-05T01:45:06.762Z,98.67
2022-09-05T01:48:13.630Z,98.73
2022-09-05T01:51:08.050Z,99.16
2022-09-05T01:54:48.578Z,98.78
2022-09-05T01:57:55.880Z,99.10
2022-09-05T02:00:55.645Z,99.37
2022-09-05T02:04:07.569Z,99.91
2022-09-05T02:06:53.384Z,99.92
2022-09-05T02:10:20.296Z,99.90
2022-09-05T02:13:33.811Z,100.00
2022-09-05T02:16:43.478Z,100.00
2022-09-05T02:19:31.880Z,100.00
2022-09-05T02:22:40.350Z,100.00
2022-09-05T02:26:02.450Z,100.00
2022-09-05T02:29:01.519Z,100.00
2022-09-05T02:31:53.274Z,100.00
2022-09-05T02:34:51.218Z,99.96
2022-09-05T02:38:56.765Z,100.00
2022-09-05T02:45:13.547Z,100.00
2022-09-05T02:45:20.265Z,100.00
2022-09-05T02:48:15.647Z,100.00
2022-09-05T02:57:22.970Z,100.00
2022-09-05T02:57:32.900Z,100.00
2022-09-05T02:58:08.985Z,100.00
2022-09-05T03:01:23.981Z,99.99
2022-09-05T03:04:33.271Z,100.00
2022-09-05T03:07:33.683Z,100.00
2022-09-05T03:11:01.129Z,100.00
2022-09-05T03:13:59.355Z,100.00
2022-09-05T03:17:09.976Z,100.00
2022-09-05T03:20:08.121Z,100.00
2022-09-05T03:23:33.213Z,100.00
2022-09-05T03:26:57.322Z,100.00
2022-09-05T03:29:50.013Z,100.00
2022-09-05T03:33:06.703Z,100.00
2022-09-05T03:36:11.460Z,100.00
2022-09-05T03:39:19.378Z,100.00
2022-09-05T03:42:32.294Z,100.00
2022-09-05T03:45:56.729Z,100.00
2022-09-05T03:50:09.496Z,100.00
2022-09-05T03:57:08.813Z,100.00
2022-09-05T03:57:22.451Z,100.00
2022-09-05T03:59:47.616Z,100.00
2022-09-05T04:07:23.565Z,100.00
2022-09-05T04:08:23.746Z,100.00
2022-09-05T04:09:48.920Z,100.00
2022-09-05T04:12:57.218Z,100.00
2022-09-05T04:15:43.220Z,100.00
2022-09-05T04:18:42.213Z,100.00
2022-09-05T04:21:32.134Z,100.00
2022-09-05T04:24:41.272Z,100.00
2022-09-05T04:27:56.016Z,100.00
2022-09-05T04:30:46.227Z,100.00
2022-09-05T04:34:02.426Z,100.00
2022-09-05T04:37:01.776Z,100.00
2022-09-05T04:39:47.755Z,100.00
2022-09-05T04:42:37.729Z,100.00
2022-09-05T04:45:24.640Z,100.00
2022-09-05T04:48:15.808Z,100.00
2022-09-05T04:51:13.010Z,100.00
2022-09-05T04:54:30.019Z,100.00
2022-09-05T04:57:38.394Z,100.00
2022-09-05T05:06:01.810Z,100.00
2022-09-05T05:06:12.918Z,100.00
2022-09-05T05:07:59.478Z,100.00
2022-09-05T05:17:54.142Z,100.00
2022-09-05T05:18:14.369Z,100.00
2022-09-05T05:18:38.751Z,100.00
2022-09-05T05:21:12.535Z,100.00
2022-09-05T05:24:01.571Z,100.00
2022-09-05T05:27:06.383Z,100.00
2022-09-05T05:29:58.284Z,100.00
2022-09-05T05:32:51.952Z,100.00
2022-09-05T05:35:48.158Z,100.00
2022-09-05T05:38:50.891Z,100.00
2022-09-05T05:41:45.090Z,100.00
2022-09-05T05:44:34.970Z,100.00
2022-09-05T05:47:32.287Z,100.00
2022-09-05T05:50:25.749Z,100.00
2022-09-05T05:53:31.961Z,100.00
2022-09-05T05:56:31.450Z,100.00
2022-09-05T05:59:24.942Z,100.00
2022-09-05T06:02:20.238Z,100.00
2022-09-05T06:05:27.861Z,100.00
2022-09-05T06:11:18.079Z,100.00
2022-09-05T06:14:57.994Z,100.00
2022-09-05T06:15:36.151Z,100.00
2022-09-05T06:18:50.553Z,100.00
2022-09-05T06:23:36.676Z,100.00
2022-09-05T06:26:55.733Z,100.00
2022-09-05T06:30:17.409Z,100.00
2022-09-05T06:33:03.245Z,100.00
2022-09-05T06:36:04.524Z,100.00
2022-09-05T06:39:11.643Z,100.00
2022-09-05T06:42:30.585Z,100.00
2022-09-05T06:46:07.483Z,100.00
2022-09-05T06:49:29.811Z,100.00
2022-09-05T06:53:20.141Z,100.00
2022-09-05T06:56:29.911Z,99.76
2022-09-05T06:59:38.090Z,99.72
2022-09-05T07:02:58.822Z,99.09
2022-09-05T07:05:45.528Z,97.90
2022-09-05T07:08:54.191Z,96.99
2022-09-05T07:12:18.598Z,95.64
2022-09-05T07:15:29.485Z,94.98
2022-09-05T07:19:06.363Z,94.75
2022-09-05T07:22:47.925Z,93.71
2022-09-05T07:25:37.322Z,93.09
2022-09-05T07:28:28.681Z,92.93
2022-09-05T07:31:37.385Z,91.43
2022-09-05T07:34:33.425Z,88.67
2022-09-05T07:37:25.881Z,88.47
2022-09-05T07:40:24.715Z,85.68
2022-09-05T07:43:19.329Z,84.41
2022-09-05T07:46:11.784Z,83.79
2022-09-05T07:49:14.747Z,83.40
2022-09-05T07:56:46.628Z,83.84
2022-09-05T07:56:58.646Z,81.49
2022-09-05T07:58:50.061Z,80.19
2022-09-05T08:01:41.390Z,79.02
2022-09-05T08:04:35.972Z,79.53
2022-09-05T08:07:48.309Z,78.89
2022-09-05T08:11:23.429Z,75.99
2022-09-05T08:14:45.234Z,74.82
2022-09-05T08:17:35.728Z,73.27
2022-09-05T08:20:32.286Z,75.20
2022-09-05T08:23:31.025Z,75.21
2022-09-05T08:26:33.188Z,69.90
2022-09-05T08:29:40.614Z,68.23
2022-09-05T08:33:11.064Z,65.32
2022-09-05T08:36:31.882Z,66.57
2022-09-05T08:39:29.939Z,64.53
2022-09-05T08:46:37.717Z,65.81
2022-09-05T08:46:45.760Z,66.92
2022-09-05T08:49:36.788Z,65.72
2022-09-05T08:52:52.191Z,65.72
2022-09-05T08:55:44.076Z,66.85
2022-09-05T08:59:27.948Z,65.22
2022-09-05T09:02:46.729Z,63.50
2022-09-05T09:06:12.945Z,62.78
2022-09-05T09:08:46.245Z,62.25
2022-09-05T09:11:36.610Z,61.85
2022-09-05T09:14:52.931Z,60.69
2022-09-05T09:17:46.885Z,59.11
2022-09-05T09:20:56.932Z,58.94
2022-09-05T09:24:01.816Z,56.32
2022-09-05T09:27:03.127Z,57.96
2022-09-05T09:29:52.040Z,58.15
2022-09-05T09:32:47.043Z,57.82
2022-09-05T09:35:54.542Z,58.90
2022-09-05T09:38:52.121Z,57.44
2022-09-05T09:42:07.122Z,54.72
2022-09-05T09:45:22.750Z,52.73
2022-09-05T09:48:53.400Z,55.57
2022-09-05T09:52:21.212Z,57.04
2022-09-05T09:55:32.817Z,55.12
2022-09-05T09:58:32.425Z,53.91
2022-09-05T10:01:40.825Z,49.93
2022-09-05T10:10:39.642Z,52.50
2022-09-05T10:10:56.799Z,49.72
2022-09-05T10:12:06.751Z,51.64
2022-09-05T10:15:01.902Z,50.96
2022-09-05T10:18:35.759Z,51.67
2022-09-05T10:22:34.235Z,51.14
2022-09-05T10:25:19.678Z,50.98
2022-09-05T10:28:34.349Z,52.18
2022-09-05T10:33:10.489Z,55.57
2022-09-05T10:35:23.354Z,51.09
2022-09-05T10:38:35.462Z,50.79
2022-09-05T10:41:32.318Z,52.15
2022-09-05T10:44:40.803Z,50.81
2022-09-05T10:47:49.422Z,52.13
2022-09-05T10:50:52.838Z,53.28
2022-09-05T10:54:17.638Z,53.31
2022-09-05T10:57:15.389Z,52.80
2022-09-05T11:02:30.288Z,53.11
2022-09-05T11:03:52.369Z,53.28
2022-09-05T11:07:17.023Z,51.86
2022-09-05T11:10:16.202Z,50.46
2022-09-05T11:13:33.572Z,51.94
2022-09-05T11:17:02.577Z,50.51
2022-09-05T11:20:04.826Z,52.12
2022-09-05T11:23:03.626Z,51.01
2022-09-05T11:26:02.261Z,51.60
2022-09-05T11:29:01.057Z,51.90
2022-09-05T11:32:05.800Z,48.21
2022-09-05T11:39:45.692Z,49.91
2022-09-05T11:40:03.789Z,51.62
2022-09-05T11:42:25.759Z,51.79
2022-09-05T11:45:21.266Z,50.97
2022-09-05T11:48:26.767Z,51.21
2022-09-05T11:51:48.526Z,50.32
2022-09-05T11:55:02.746Z,49.13
2022-09-05T11:58:44.002Z,49.07
2022-09-05T12:01:41.808Z,49.25
2022-09-05T12:05:48.992Z,50.06
2022-09-05T12:08:18.313Z,50.03
2022-09-05T12:11:27.163Z,49.66
2022-09-05T12:14:29.132Z,50.09
2022-09-05T12:17:38.752Z,48.57
2022-09-05T12:20:43.307Z,46.39
2022-09-05T12:23:56.626Z,46.29
2022-09-05T12:27:43.062Z,45.44
2022-09-05T12:30:09.976Z,45.12
2022-09-05T12:40:53.655Z,43.28
2022-09-05T12:41:32.878Z,45.00
2022-09-05T12:42:08.242Z,42.67
2022-09-05T12:44:00.687Z,44.05
2022-09-05T12:46:33.521Z,43.17
2022-09-05T12:49:37.298Z,42.22
2022-09-05T12:52:34.093Z,43.37
2022-09-05T12:55:31.122Z,45.76
2022-09-05T13:02:56.590Z,44.63
2022-09-05T13:03:13.989Z,44.06
2022-09-05T13:05:02.354Z,42.81
2022-09-05T13:07:58.457Z,43.77
2022-09-05T13:14:56.694Z,42.32
2022-09-05T13:14:57.074Z,45.49
2022-09-05T13:17:14.374Z,42.63
2022-09-05T13:20:01.056Z,40.61
2022-09-05T13:22:50.760Z,41.65
2022-09-05T13:25:41.133Z,43.31
2022-09-05T13:28:37.545Z,41.49
2022-09-05T13:37:58.308Z,41.50
2022-09-05T13:38:09.898Z,41.41
2022-09-05T13:38:47.873Z,43.78
2022-09-05T13:41:29.459Z,41.21
2022-09-05T13:44:27.571Z,40.98
2022-09-05T13:47:37.577Z,42.19
2022-09-05T13:50:36.225Z,41.11
2022-09-05T13:53:36.789Z,41.65
2022-09-05T13:56:30.877Z,42.19
2022-09-05T13:59:21.673Z,42.86
2022-09-05T14:02:27.797Z,43.92
2022-09-05T14:05:37.654Z,43.24
2022-09-05T14:12:25.693Z,44.64
2022-09-05T14:15:14.070Z,44.62
2022-09-05T14:18:20.755Z,44.29
2022-09-05T14:21:19.095Z,44.30
2022-09-05T14:24:28.171Z,45.26
2022-09-05T14:27:31.969Z,44.67
2022-09-05T14:35:15.019Z,44.91
2022-09-05T14:37:42.985Z,45.53
2022-09-05T14:37:50.881Z,45.91
2022-09-05T14:40:30.253Z,45.89
2022-09-05T14:43:08.277Z,46.12
2022-09-05T14:45:37.342Z,45.04
2022-09-05T14:48:39.359Z,45.43
2022-09-05T14:51:31.714Z,46.10
2022-09-05T14:54:05.006Z,44.53
2022-09-05T14:58:26.402Z,45.70
2022-09-05T15:02:50.649Z,46.41
2022-09-05T15:02:52.714Z,46.54
2022-09-05T15:05:28.106Z,47.42
2022-09-05T15:08:18.257Z,45.66
2022-09-05T15:12:22.073Z,45.63
2022-09-05T15:14:08.422Z,46.04
2022-09-05T15:16:43.813Z,46.68
2022-09-05T15:19:34.038Z,47.13
2022-09-05T15:22:43.189Z,48.02
2022-09-05T15:25:21.739Z,46.92
2022-09-05T15:27:53.767Z,47.17
2022-09-05T15:30:35.809Z,47.56
2022-09-05T15:33:14.656Z,48.25
2022-09-05T15:35:45.808Z,48.15
2022-09-05T15:38:27.679Z,48.70
2022-09-05T15:41:20.737Z,48.24
2022-09-05T15:44:01.646Z,48.12
2022-09-05T15:47:17.385Z,48.81
2022-09-05T15:51:13.953Z,49.23
2022-09-05T15:53:42.808Z,49.92
2022-09-05T15:56:13.475Z,50.32
2022-09-05T15:58:56.635Z,50.94
2022-09-05T16:02:00.497Z,51.92
2022-09-05T16:10:27.276Z,52.41
2022-09-05T16:10:46.663Z,52.04
2022-09-05T16:11:11.146Z,52.28
2022-09-05T16:13:52.103Z,52.90
2022-09-05T16:21:52.676Z,53.50
2022-09-05T16:23:27.781Z,53.57
2022-09-05T16:23:34.528Z,53.86
2022-09-05T16:25:52.765Z,55.00
2022-09-05T16:28:28.882Z,55.63
2022-09-05T16:31:04.282Z,56.95
2022-09-05T16:33:34.029Z,58.09
2022-09-05T16:36:16.412Z,58.39
2022-09-05T16:39:36.347Z,58.53
2022-09-05T16:42:16.614Z,59.00
2022-09-05T16:45:01.487Z,59.24
2022-09-05T16:47:39.226Z,60.12
2022-09-05T16:50:34.871Z,60.06
2022-09-05T16:53:09.964Z,60.48
2022-09-05T16:55:59.682Z,60.91
2022-09-05T16:58:39.296Z,61.52
2022-09-05T17:01:41.417Z,61.93
2022-09-05T17:04:28.902Z,62.80
2022-09-05T17:07:06.274Z,63.44
2022-09-05T17:09:37.258Z,64.39
2022-09-05T17:12:57.531Z,64.85
2022-09-05T17:15:35.377Z,65.31
2022-09-05T17:18:24.300Z,66.00
2022-09-05T17:21:05.242Z,65.97
2022-09-05T17:29:18.520Z,66.43
2022-09-05T17:29:24.033Z,66.95
2022-09-05T17:31:14.563Z,67.38
2022-09-05T17:32:40.072Z,67.71
2022-09-05T17:35:17.320Z,67.96
2022-09-05T17:38:14.676Z,68.57
2022-09-05T17:40:59.630Z,69.24
2022-09-05T17:43:35.532Z,69.76
2022-09-05T17:46:31.724Z,70.24
2022-09-05T17:49:19.887Z,71.00
2022-09-05T17:51:52.066Z,71.38
2022-09-05T17:54:29.395Z,71.82
2022-09-05T17:57:29.511Z,71.66
2022-09-05T18:00:12.432Z,71.48
2022-09-05T18:03:08.486Z,71.43
2022-09-05T18:06:01.251Z,71.65
2022-09-05T18:08:52.704Z,72.25
2022-09-05T18:11:27.688Z,73.04
2022-09-05T18:17:49.958Z,74.79
2022-09-05T18:21:22.476Z,74.85
2022-09-05T18:28:33.127Z,75.64
2022-09-05T18:31:41.734Z,76.27
2022-09-05T18:34:16.663Z,76.71
2022-09-05T18:36:48.631Z,76.87
2022-09-05T18:39:23.798Z,76.81
2022-09-05T18:42:26.588Z,76.73
2022-09-05T18:45:16.373Z,76.90
2022-09-05T18:47:57.362Z,77.01
2022-09-05T18:50:35.134Z,77.34
2022-09-05T18:53:12.821Z,78.17
2022-09-05T18:56:20.363Z,78.86
2022-09-05T18:59:56.427Z,79.51
2022-09-05T19:02:58.212Z,79.91
2022-09-05T19:05:41.834Z,80.35
2022-09-05T19:08:47.335Z,80.72
2022-09-05T19:11:52.843Z,81.16
2022-09-05T19:14:53.894Z,81.72
2022-09-05T19:17:47.366Z,81.96
2022-09-05T19:20:32.486Z,82.35
2022-09-05T19:23:22.433Z,82.93
2022-09-05T19:26:09.705Z,82.93
2022-09-05T19:36:46.106Z,82.91
2022-09-05T19:36:50.518Z,83.34
2022-09-05T19:37:13.586Z,83.66
2022-09-05T19:37:32.815Z,83.21
2022-09-05T19:45:48.932Z,82.08
2022-09-05T19:47:43.859Z,83.25
2022-09-05T19:47:52.053Z,82.84
2022-09-05T19:48:36.881Z,83.47
2022-09-05T19:51:17.046Z,82.90
2022-09-05T19:53:55.186Z,82.36
2022-09-05T19:56:46.873Z,82.31
2022-09-05T19:59:40.500Z,82.58
2022-09-05T20:02:22.243Z,82.49
2022-09-05T20:05:08.263Z,82.55
2022-09-05T20:08:37.577Z,82.43
2022-09-05T20:11:07.346Z,82.49
2022-09-05T20:13:35.834Z,82.51
2022-09-05T20:16:05.581Z,82.90
2022-09-05T20:18:41.011Z,83.08
2022-09-05T20:21:14.777Z,83.20
2022-09-05T20:23:51.918Z,83.44
2022-09-05T20:26:24.831Z,83.43
2022-09-05T20:29:16.119Z,83.20
2022-09-05T20:31:45.335Z,82.77
2022-09-05T20:35:39.404Z,82.58
2022-09-05T20:43:08.561Z,82.93
2022-09-05T20:43:18.674Z,83.30
2022-09-05T20:43:31.636Z,83.70
2022-09-05T20:46:27.960Z,83.84
2022-09-05T20:54:09.692Z,84.33
2022-09-05T20:54:27.072Z,84.39
2022-09-05T20:54:44.821Z,84.69
2022-09-05T20:57:20.148Z,84.74
2022-09-05T20:59:49.087Z,84.66
2022-09-05T21:02:24.744Z,84.83
2022-09-05T21:05:20.584Z,84.94
2022-09-05T21:08:20.389Z,84.63
2022-09-05T21:10:56.375Z,84.26
2022-09-05T21:13:36.359Z,84.30
2022-09-05T21:16:21.618Z,84.06
2022-09-05T21:18:55.877Z,83.88
2022-09-05T21:21:33.612Z,84.06
2022-09-05T21:24:18.116Z,84.35
2022-09-05T21:26:48.881Z,84.07
2022-09-05T21:29:27.495Z,83.96
2022-09-05T21:32:10.979Z,83.91
2022-09-05T21:34:52.285Z,83.88
2022-09-05T21:37:21.762Z,84.08
2022-09-05T21:39:58.319Z,84.19
2022-09-05T21:44:46.764Z,84.21
2022-09-05T21:47:38.027Z,84.38
2022-09-05T21:48:15.590Z,84.49
2022-09-05T21:50:45.858Z,84.65
2022-09-05T21:56:26.906Z,84.95
2022-09-05T21:59:20.588Z,85.06
2022-09-05T21:59:25.436Z,85.10
2022-09-05T22:02:05.483Z,85.12
2022-09-05T22:04:41.244Z,85.11
2022-09-05T22:07:21.711Z,85.37
2022-09-05T22:10:04.370Z,85.48
2022-09-05T22:12:39.002Z,85.59
2022-09-05T22:15:27.368Z,85.68
2022-09-05T22:18:17.036Z,85.87
2022-09-05T22:20:53.528Z,85.73
2022-09-05T22:23:53.743Z,85.81
2022-09-05T22:26:22.070Z,85.90
2022-09-05T22:28:51.310Z,86.17
2022-09-05T22:31:20.730Z,86.30
2022-09-05T22:33:51.081Z,86.54
2022-09-05T22:36:20.028Z,86.89
2022-09-05T22:38:48.360Z,87.03
2022-09-05T22:41:17.156Z,87.12
2022-09-05T22:43:46.553Z,87.28
2022-09-05T22:46:14.992Z,87.46
2022-09-05T22:48:43.566Z,87.51
2022-09-05T22:51:12.339Z,87.61
2022-09-05T22:53:40.619Z,87.88
2022-09-05T22:56:11.775Z,88.25
2022-09-05T22:58:45.205Z,88.48
2022-09-05T23:01:14.087Z,88.52
2022-09-05T23:03:42.507Z,88.96
2022-09-05T23:06:10.933Z,89.46
2022-09-05T23:08:39.895Z,89.79
2022-09-05T23:11:10.625Z,90.13
2022-09-05T23:13:39.549Z,90.35
2022-09-05T23:16:08.017Z,90.61
2022-09-05T23:18:36.716Z,91.01
2022-09-05T23:21:07.478Z,91.20
2022-09-05T23:23:37.262Z,91.29
2022-09-05T23:26:09.685Z,91.70
2022-09-05T23:28:43.049Z,92.04
2022-09-05T23:31:12.845Z,92.36
2022-09-05T23:33:42.059Z,92.42
2022-09-05T23:36:13.926Z,92.54
2022-09-05T23:38:43.534Z,92.58
2022-09-05T23:41:14.547Z,92.76
2022-09-05T23:43:42.899Z,92.83
2022-09-05T23:46:11.917Z,92.83
2022-09-05T23:48:40.575Z,92.74
2022-09-05T23:51:11.847Z,92.65
2022-09-05T23:53:40.548Z,92.52
2022-09-05T23:56:10.774Z,92.38
2022-09-05T23:58:39.167Z,92.41
